Terminal Aerodrome Forecast
Issued by NWS Sterling, VA

Current Version | Previous Version | Graphics & Text | Print | Product List | Glossary On
Versions: 1 2 3 4 5 6 7 8 9 10 11 12 13 14 15 16 17 18 19 20 21 22 23 24 25 26
000
FTUS41 KLWX 231455 AAA
TAFIAD
TAF AMD
KIAD 231455Z 2315/2418 22010KT P6SM BKN050
     FM240000 22012KT P6SM VCTS SCT050CB BKN120
     FM240300 21009KT P6SM -SHRA BKN050
     FM240700 22009KT 3SM +SHRA OVC015
     FM240900 18010KT 3SM +SHRA OVC015 WS020/29025KT
     FM241200 29008KT 6SM -SHRA BKN025
     FM241500 29012G19KT P6SM BKN040=

USA.gov is the U.S. government's official web portal to all federal, state and local government web resources and services.